• Join FlightAware (Why Join?)
  • Login
  • US Flag 
12:38AM EST


 

Airport Tracker/Info


-or-


 

Live Flight TrackerFlight Track Log ✈ SWA3225 ✈ 30-Mar-2014 ✈ KFLL - KALB

Flight Track Log - Related Links

Times and Time Zones

All times are in EDT time to prevent confusion due to time zone crossing. See the SWA3225 flight status page for this flight to view local times or setup timezone preferences in your user account.

Time Position Orientation Groundspeed Altitude Reporting Facility
EDT Latitude Longitude Course Direction KTS MPH feet Rate Location/Type
03:26PM 26.0742 -80.1736 266° West 133 153 600  Level Miami Center
03:27PM 26.0711 -80.2175 266° West 198 228 2,100 2,040 Climbing Miami Center
03:28PM 26.0992 -80.2622 305° West 217 250 4,400 1,560 Climbing Miami Center
03:29PM 26.1722 -80.2667 357° North 258 297 5,300 1,800 Climbing Miami Center
03:30PM 26.2314 -80.2383 23° Northeast 280 322 8,000 3,120 Climbing Miami Center
03:30PM 26.2378 -80.2292 52° Northeast 284 327 8,500 2,700 Climbing Miami Center
03:31PM 26.2644 -80.1581 67° East 306 352 10,700 2,520 Climbing Miami Center
03:32PM 26.2589 -80.0328 93° East 346 398 13,400 2,280 Climbing Miami Center
03:33PM 26.2633 -79.9217 87° East 362 417 15,300 2,280 Climbing Miami Center
03:34PM 26.2636 -79.8083 90° East 412 474 18,000 2,820 Climbing Miami Center
03:35PM 26.2708 -79.6556 87° East 423 487 21,000 2,580 Climbing Miami Center
03:36PM 26.3397 -79.5414 56° Northeast 423 487 23,200 1,980 Climbing Miami Center
03:37PM 26.4394 -79.4669 34° Northeast 423 487 25,000 1,800 Climbing Miami Center
03:38PM 26.5531 -79.4092 24° Northeast 438 504 26,900 1,080 Climbing Miami Center
03:39PM 26.6692 -79.3489 25° Northeast 444 511 27,200 1,080 Climbing Miami Center
03:40PM 26.7872 -79.2886 25° Northeast 452 520 29,100 1,560 Climbing Miami Center
03:41PM 26.9031 -79.2233 27° Northeast 457 526 30,400 1,140 Climbing Miami Center
03:42PM 27.0272 -79.1583 25° Northeast 470 541 31,400 1,200 Climbing Miami Center
03:43PM 27.1389 -79.0975 26° Northeast 484 557 32,800 1,260 Climbing Miami Center
03:44PM 27.2675 -79.0275 26° Northeast 490 564 34,000 1,380 Climbing Miami Center
03:45PM 27.4106 -78.9575 23° Northeast 498 573 35,600 1,500 Climbing Miami Center
03:46PM 27.5403 -78.9294 11° North 488 562 37,000 660 Climbing Miami Center
03:47PM 27.6658 -78.9131 North 465 535 37,000  Level Miami Center
03:48PM 27.7789 -78.8986 North 455 524 37,000 -60 Level Miami Center
03:49PM 27.9169 -78.8775 North 449 517 36,900 -60 Descending Miami Center
03:50PM 28.0467 -78.8611 North 449 517 36,900  Level Miami Center
03:51PM 28.1742 -78.8422 North 449 517 37,000  Climbing Miami Center
03:52PM 28.2975 -78.8253 North 449 517 37,000  Level Miami Center
03:53PM 28.4231 -78.8086 North 449 517 37,000  Level Miami Center
03:54PM 28.5464 -78.7872 North 449 517 37,000  Level Miami Center
03:55PM 28.6781 -78.7731 North 455 524 37,000  Level Miami Center
03:56PM 28.8017 -78.7514 North 455 524 37,000  Level Miami Center
03:57PM 28.9375 -78.7347 North 461 531 37,000  Level Miami Center
03:58PM 29.0669 -78.7156 North 467 537 37,000 -60 Level Miami Center
03:59PM 29.1967 -78.6939 North 472 543 36,900 -60 Descending Miami Center
04:00PM 29.3014 -78.6600 16° North 399 459 36,900  Level Miami Center
04:01PM 29.4494 -78.6600 360° North 464 534 36,900  Level Miami Center
04:02PM 29.5708 -78.6383 North 451 519 37,000  Climbing Miami Center
04:03PM 29.6961 -78.6189 North 445 512 37,000  Level Miami Center
04:03PM 29.7750 -78.6072 North 458 527 37,000 -60 Level Jacksonville Center
04:04PM 29.9036 -78.5850 North 465 535 36,900 -60 Descending Jacksonville Center
04:05PM 30.0281 -78.5650 North 465 535 36,900  Level Jacksonville Center
04:06PM 30.1569 -78.5425 North 465 535 37,000  Climbing Jacksonville Center
04:07PM 30.3022 -78.5236 North 465 535 36,900 -60 Descending Jacksonville Center
04:08PM 30.4311 -78.5033 North 465 535 36,900  Level Jacksonville Center
04:09PM 30.5681 -78.4850 North 471 542 37,000  Climbing Jacksonville Center
04:14PM 31.2158 -78.3844 North 470 541 36,900  Descending Jacksonville Center
04:15PM 31.1772 -78.3830 North  Level FlightAware Approximate
04:16PM 31.4814 -78.3375 North 481 554 37,000  Level Jacksonville Center
04:17PM 31.6117 -78.3017 13° North 481 554 37,000  Level Jacksonville Center
04:18PM 31.7286 -78.2494 21° North 493 567 37,000  Level Jacksonville Center
04:19PM 31.8622 -78.1939 19° North 493 567 37,000 -60 Level Jacksonville Center
04:20PM 31.9964 -78.1503 15° North 493 567 36,900  Descending Jacksonville Center
04:21PM 32.1300 -78.0969 19° North 493 567 37,000  Climbing Jacksonville Center
04:22PM 31.9925 -78.2502 North  Level FlightAware Approximate
04:22PM 32.2617 -78.0458 18° North 493 567 37,000  Level Jacksonville Center
04:23PM 32.1091 -78.2322 North  Level FlightAware Approximate
04:23PM 32.3933 -77.9944 18° North 493 567 37,000  Level Jacksonville Center
04:24PM 32.2257 -78.2143 North  Level FlightAware Approximate
04:24PM 32.5269 -77.9453 17° North 493 567 37,000  Level Jacksonville Center
04:25PM 32.6586 -77.8939 18° North 493 567 36,900  Descending Jacksonville Center
04:26PM 32.7900 -77.8394 19° North 493 567 37,000  Climbing Jacksonville Center
04:27PM 32.9194 -77.7903 18° North 493 567 36,900  Descending Jacksonville Center
04:28PM 33.0550 -77.7381 18° North 493 567 37,000  Climbing Jacksonville Center
04:29PM 33.1864 -77.6856 18° North 493 567 37,000  Level Jacksonville Center
04:30PM 33.3200 -77.6331 18° North 493 567 37,000  Level Jacksonville Center
04:33PM 33.6411 -77.5075 18° North 506 582 37,000 -60 Level Washington Center
04:34PM 33.7736 -77.4531 19° North 501 577 36,900  Descending Washington Center
04:35PM 33.9058 -77.4011 18° North 501 577 37,000  Climbing Washington Center
04:36PM 34.0358 -77.3461 19° North 501 577 37,000  Level Washington Center
04:37PM 34.1681 -77.2964 17° North 501 577 37,000 -60 Level Washington Center
04:38PM 34.3003 -77.2439 18° North 501 577 36,900 -60 Descending Washington Center
04:39PM 34.4303 -77.1883 19° North 496 571 36,900  Level Washington Center
04:40PM 34.5750 -77.1308 18° North 496 571 37,000  Climbing Washington Center
04:41PM 34.7092 -77.0778 18° North 496 571 37,000 -60 Level Washington Center
04:42PM 34.8392 -77.0244 19° North 496 571 36,900  Descending Washington Center
04:43PM 34.9714 -76.9683 19° North 496 571 37,000  Climbing Washington Center
04:44PM 35.0742 -76.9269 18° North 491 565 37,000  Level Washington Center
04:45PM 35.2144 -76.8658 20° North 491 565 37,000  Level Washington Center
04:46PM 35.3467 -76.8119 18° North 485 558 37,000  Level Washington Center
04:47PM 35.4764 -76.7525 20° North 485 558 37,000 -60 Level Washington Center
04:48PM 35.6208 -76.6983 17° North 485 558 36,900  Descending Washington Center
04:49PM 35.7489 -76.6414 20° North 490 564 37,000  Climbing Washington Center
04:50PM 35.8764 -76.5892 18° North 485 558 37,000  Level Washington Center
04:51PM 36.0064 -76.5344 19° North 485 558 37,000 -60 Level Washington Center
04:52PM 36.1381 -76.4794 19° North 485 558 36,900  Descending Washington Center
04:53PM 36.2636 -76.4267 19° North 485 558 37,000  Climbing Washington Center
04:54PM 36.3933 -76.3711 19° North 485 558 37,000 -60 Level Washington Center
04:55PM 36.5211 -76.3183 18° North 485 558 36,900 -60 Descending Washington Center
04:56PM 36.6508 -76.2625 19° North 485 558 36,900  Level Washington Center
04:57PM 36.7636 -76.2089 21° North 485 558 37,000  Climbing Washington Center
04:58PM 36.8892 -76.1553 19° North 480 552 37,000  Level Washington Center
04:59PM 37.0333 -76.0967 18° North 486 559 37,000  Level Washington Center
05:00PM 37.1628 -76.0400 19° North 486 559 37,000  Level Washington Center
05:01PM 37.2881 -75.9861 19° North 480 552 37,000 -60 Level Washington Center
05:02PM 37.4156 -75.9344 18° North 480 552 36,900  Descending Washington Center
05:03PM 37.5408 -75.8747 21° North 480 552 37,000  Climbing Washington Center
05:04PM 37.6661 -75.8175 20° North 480 552 36,900  Descending Washington Center
05:05PM 37.7933 -75.7600 20° North 480 552 37,000  Climbing Washington Center
05:06PM 37.9186 -75.7075 18° North 480 552 37,000  Level Washington Center
05:07PM 38.0189 -75.6603 20° North 480 552 37,000  Level Washington Center
05:08PM 38.1628 -75.5892 21° North 474 545 37,000  Level Washington Center
05:09PM 38.2878 -75.5361 18° North 467 537 37,000  Level Washington Center
05:10PM 38.4128 -75.4806 19° North 472 543 37,000  Level Washington Center
05:11PM 38.5400 -75.4325 16° North 467 537 37,000  Level Washington Center
05:12PM 38.6567 -75.3631 25° Northeast 462 532 37,000  Level Washington Center
05:13PM 38.7689 -75.2747 32° Northeast 462 532 37,000  Level Washington Center
05:14PM 38.8814 -75.1889 31° Northeast 467 537 37,000  Level Washington Center
05:15PM 38.9997 -75.1108 27° Northeast 467 537 37,000  Level Washington Center
05:16PM 39.1142 -75.0219 31° Northeast 472 543 37,000  Level Washington Center
05:17PM 39.2325 -74.9297 31° Northeast 472 543 37,000  Level Washington Center
05:18PM 39.3486 -74.8400 31° Northeast 477 549 37,000  Level Washington Center
05:19PM 39.4647 -74.7528 30° Northeast 477 549 37,000 -420 Level Washington Center
05:20PM 39.5828 -74.6625 31° Northeast 482 555 36,200 -780 Descending Washington Center
05:21PM 39.7769 -74.5172 30° Northeast 482 555 35,000 -480 Descending New York Center
05:22PM 39.8814 -74.4389 30° Northeast 482 555 35,000  Level New York Center
05:23PM 39.9925 -74.3500 31° Northeast 477 549 35,000  Level New York Center
05:24PM 40.1078 -74.2611 31° Northeast 477 549 35,000  Level New York Center
05:25PM 40.2289 -74.1883 25° Northeast 477 549 35,000 -300 Level New York Center
05:26PM 40.3494 -74.1208 23° Northeast 466 536 34,400 -840 Descending New York Center
05:27PM 40.4661 -74.0528 24° Northeast 466 536 33,400 -1,800 Descending New York Center
05:30PM 40.7611 -73.8831 24° Northeast 470 541 28,500 -2,760 Descending Boston Center
05:31PM 40.8686 -73.7686 39° Northeast 494 568 24,300 -2,520 Descending Boston Center
05:32PM 40.9622 -73.6536 43° Northeast 463 533 23,400 -660 Descending Boston Center
05:33PM 41.0519 -73.5419 43° Northeast 446 513 23,000 -780 Descending Boston Center
05:34PM 41.1667 -73.4753 24° Northeast 463 533 21,800 -1,140 Descending Boston Center
05:35PM 41.2961 -73.4828 358° North 465 535 20,800 -1,440 Descending Boston Center
05:36PM 41.4283 -73.4897 358° North 446 513 19,000 -1,980 Descending Boston Center
05:37PM 41.5519 -73.4964 358° North 416 479 16,800 -1,920 Descending Boston Center
05:38PM 41.6628 -73.5017 358° North 404 465 15,100 -1,620 Descending Boston Center
05:39PM 41.7692 -73.5075 358° North 387 445 13,600 -1,260 Descending Boston Center
05:40PM 41.8697 -73.5125 358° North 368 423 12,600 -1,140 Descending Boston Center
05:41PM 41.9764 -73.5181 358° North 359 413 11,400 -1,080 Descending Boston Center
05:41PM 41.9769 -73.5189 312° West 355 409 11,500 -900 Climbing Boston Center
05:41PM 42.0067 -73.5200 358° North 356 410 11,100 -540 Descending Boston Center
05:42PM 42.0711 -73.5214 359° North 347 399 11,000 -120 Descending Boston Center
05:42PM 42.0997 -73.5275 351° North 333 383 11,000  Level Boston Center
05:43PM 42.1425 -73.5453 343° North 329 379 11,000  Level Boston Center
05:43PM 42.1817 -73.5719 333° Northwest 323 372 11,000 -540 Level Boston Center
05:44PM 42.2411 -73.6053 337° Northwest 326 375 10,500 -1,020 Descending Boston Center
05:44PM 42.2611 -73.6186 334° Northwest 311 358 10,000 -1,560 Descending Boston Center
05:45PM 42.3192 -73.6522 337° Northwest 310 357 8,900 -1,560 Descending Boston Center
05:46PM 42.3981 -73.7006 336° Northwest 299 344 7,300 -1,560 Descending Boston Center
05:46PM 42.4136 -73.7128 330° Northwest 295 339 6,900 -1,200 Descending Boston Center
05:47PM 42.4714 -73.7456 337° Northwest 291 335 6,100 -1,020 Descending Boston Center
05:47PM 42.4908 -73.7589 333° Northwest 277 319 5,900 -720 Descending Boston Center
05:48PM 42.5353 -73.7839 337° Northwest 254 292 5,400 -1,020 Descending Boston Center
05:48PM 42.5553 -73.7953 337° Northwest 221 254 4,800 -1,260 Descending Boston Center
05:49PM 42.5906 -73.7978 357° North 181 208 4,100 -1,200 Descending Boston Center
05:49PM 42.6017 -73.7992 355° North 145 167 3,600 -1,320 Descending Boston Center
05:50PM 42.6292 -73.7997 359° North 142 163 2,800 -1,320 Descending Boston Center
05:50PM 42.6361 -73.7992 North 113 130 2,300 -900 Descending Boston Center
05:51PM 42.6594 -73.8008 357° North 115 132 1,900 -660 Descending Boston Center
05:52PM 42.6744 -73.8006 North 119 137 1,600 -720 Descending Boston Center
05:52PM 42.6944 -73.8025 356° North 120 138 1,200 -780 Descending Boston Center
05:52PM 42.7064 -73.8025 360° North 128 147 900 -840 Descending Boston Center
05:53PM 42.7325 -73.8039 358° North 124 143 400 -720 Descending Boston Center
05:55PM 42.7333 -73.8000 348° North  Level FlightAware Approximate
06:02PM 42.7491 -73.8020 355° North  Level Estimated